Colonia del Sacramento, Uruguay

11:16 AM UYT en Diciembre 04, 2016 (GMT -0300)
Colonia International | | Change Station

Alt 66 ft 34.45 °S, 57.77 °W | Updated 16 minutes ago

Mostly Cloudy
Muy nublado
81 ° F
Sensación térmica 83 ° F
N
7
Viento Variable Viento desde Sur

Hoy
Alta -- | Baja -- ° F
--% Posibilidad de precipitaciones
Ayer
Alta -- | Baja -- ° F
Precip. -- pul
Presión 29.80 pul
Visibilidad 6.2 Millas
Nubes Muy nublado 2600 ft
Índice de calor 83 ° F
Punto de rocío 68 ° F
Humedad 65%
Precipitaciones 0.00 pul
Espesor de la nieve No disponible.
5:31 AM 7:52 PM
Creciente, 23% visible
METAR SUCA 041400Z 18006KT 9999 BKN026 27/20 Q1009
Presión 29.80 pul
Visibilidad 6.2 Millas
Nubes Muy nublado 2600 ft
Índice de calor 83 ° F
Punto de rocío 68 ° F
Humedad 65%
Precipitaciones 0.00 pul
Espesor de la nieve No disponible.
5:31 AM 7:52 PM
Creciente, 23% visible
METAR SUCA 041400Z 18006KT 9999 BKN026 27/20 Q1009

10-Day Weather Forecast

No radar image for this location.
×

Almanac

Astronomía

Dec. 04, 2016 Salida Puesta
Hora real
Crepúsculo civil
Crepúsculo náutico
Crepúsculo astronómico
Luna
Horas de luz
Horas de luz
Tomorrow will be .
, % of the Moon is Illuminated

Extremos de hoy

Máximos del país Bajas del país

Community

WunderPhotos

Upload Photos

1,955,598 ¡fotos cargadas!

WunderBlog® & News

Nearby

Calidad del aire

  Calidad del aire Índice AQ Contaminante
Not available.

Grosos de nieve

Estación Profundido Altura

Actividad de terremotos

Ciudad Distance Mag. Tiempo y dato
Magnitud mínima muestra es 2,5.

Temperaturas de aguas costeras

Lugar Temperatura

Stations

Estaciones meteorológicas cercanas

Ubicación de la estación Temp. Vientos helados Punto de rocío Humedad Viento Precip. Alt Actualizado Tipo